Aérodrome :
LOGIN :

S'inscrire | Disclaimer

   EN    FR    IT 

 










Légende :    VFR   VFR Marginal   IFR   IFR Intensif   IFR Très Intensif
Visi : 
Plafond : 
>= 8 km
>= 3000ft
5 à 8 km
1000 à 3000 ft
1500m à 5 km
500 à 1000 ft
800 à 1500m
200 à 500 ft
< 800m
< 200 ft
Symboles :   Orages  Brouillard  Fortes neiges  Fortes précipitations  Vent > 20 kt
SIGMETs :   Divers  Orages  Givrage  Turbulence  Onde Orograph.  Cendres Volcan.







- Altitude de l'aérodrome : 645 ft
- Code IATA : DLE
- Voir les cartes d'approche


LFGJ - Dole Tavaux

DERNIER METAR :
  • 211630Z AUTO 10005KT 4200 -RA BR BKN006 OVC017 06/06 Q1017 TEMPO 20012G22KT RA

METARs EXPIRÉS :
  • 211600Z AUTO 11004KT 4600 -RA BR SCT020 BKN027 OVC058 06/05 Q1018 TEMPO 20012G22KT RA BKN008
  • 211530Z AUTO 13005KT 4600 -RA BR SCT003 BKN009 BKN043 06/05 Q1018 TEMPO 20012G22KT RA
  • 211500Z AUTO 11004KT 4400 -RA BR SCT005 BKN011 BKN016 06/05 Q1018 TEMPO 20012G22KT RA BKN008
  • 211430Z AUTO 11003KT 5000 -RA BR FEW017/// SCT022/// BKN043/// ///TCU 06/05 Q1019 TEMPO RA BKN008 BECMG 18010KT
  • 211400Z AUTO 12004KT 7000 -RA BKN023 BKN031 OVC044 06/05 Q1018 TEMPO 3000 RA BKN008 BECMG 18010KT

TAF TAF LFGJ
Valide du 21 à 15h jusqu'au 22 à 00h UTC


211400Z 2115/2124 18004KT 9999 -RA BKN025
TEMPO 2115/2121 20012G22KT 3000 RA BKN008
Pas de NOTAMs connus pour ce terrain.



MET'MAP, la Météo Aéronautique d'un coup d'oeil ! - Copyright ORBIFLY Décembre 2007 - Disclaimer

ORBIFLY MET'MAP TEAM :

Programmation & Développement : Alexandra Zaïnal
Conception & Développement : Baudouin d'Aumeries
Co-Programmation & Développement : Marc-Olivier Méhu
Soutien technique & logistique : Manuel Goepfert

Contact : metmap@orbifly.com




SOURCES & CREDITS :

   NOAA